Time;durP1;ratioP1;P1;durP2;ratioP2;P2;SDS_P1;SDS_P2;PMS_P1;PMS_P2;Temp;Humidity;BMP_temperature;BMP_pressure;BME280_temperature;BME280_humidity;BME280_pressure;Samples;Min_cycle;Max_cycle;Signal;HPM_P1;HPM_P2
2021/04/27 00:00:00;;;;;;;6.10;3.08;;;;;;;3.30;67.45;98390.36;1828716;78;21476;-64
2021/04/27 00:02:32;;;;;;;4.58;3.50;;;;;;;3.22;67.78;98383.55;1828766;78;20876;-64
2021/04/27 00:05:00;;;;;;;5.37;4.08;;;;;;;3.15;67.69;98374.09;1828807;78;22313;-64
2021/04/27 00:07:27;;;;;;;6.00;3.58;;;;;;;3.12;68.55;98366.25;1828630;78;20986;-64
2021/04/27 00:09:56;;;;;;;6.15;2.92;;;;;;;3.12;68.74;98368.91;1828754;78;21042;-64
2021/04/27 00:12:23;;;;;;;4.35;2.60;;;;;;;3.08;69.23;98365.52;1828603;78;20912;-64
2021/04/27 00:14:51;;;;;;;4.20;3.00;;;;;;;3.03;69.15;98358.68;1828850;78;21278;-64
2021/04/27 00:17:20;;;;;;;4.37;3.30;;;;;;;3.01;69.12;98363.16;1828742;78;21373;-64
2021/04/27 00:19:48;;;;;;;4.45;3.05;;;;;;;2.98;69.31;98368.59;1828666;78;20979;-64
2021/04/27 00:22:15;;;;;;;4.83;2.58;;;;;;;2.96;69.41;98367.31;1828735;78;20971;-64
2021/04/27 00:24:43;;;;;;;3.40;2.70;;;;;;;2.94;69.59;98367.00;1828723;78;20904;-64
2021/04/27 00:27:11;;;;;;;4.85;2.52;;;;;;;2.91;69.65;98367.11;1828720;78;20912;-64
2021/04/27 00:29:39;;;;;;;2.90;2.02;;;;;;;2.88;69.50;98368.94;1828745;78;21364;-64
2021/04/27 00:32:09;;;;;;;3.40;2.75;;;;;;;2.87;69.61;98367.23;1828588;78;21006;-64
2021/04/27 00:34:36;;;;;;;4.70;2.77;;;;;;;2.86;70.10;98355.35;1828728;78;21035;-64
2021/04/27 00:37:04;;;;;;;4.62;2.92;;;;;;;2.85;70.18;98349.19;1814910;78;20932;-64
2021/04/27 00:39:33;;;;;;;3.92;3.10;;;;;;;2.87;70.17;98347.80;1814895;79;20936;-63
2021/04/27 00:42:00;;;;;;;2.90;2.10;;;;;;;2.90;70.20;98343.67;1814806;79;21342;-64
2021/04/27 00:44:28;;;;;;;3.60;2.80;;;;;;;2.91;70.28;98335.27;1814850;79;21005;-63
2021/04/27 00:46:58;;;;;;;3.42;2.27;;;;;;;2.91;70.27;98336.12;1814868;78;20944;-63
2021/04/27 00:49:29;;;;;;;5.22;3.05;;;;;;;2.93;70.27;98337.39;1814817;79;20976;-64
2021/04/27 00:51:57;;;;;;;3.10;2.80;;;;;;;2.92;70.16;98330.35;1814768;79;20976;-63
2021/04/27 00:54:28;;;;;;;3.90;3.12;;;;;;;2.93;69.95;98326.78;1814928;79;21277;-64
2021/04/27 00:56:55;;;;;;;2.83;2.55;;;;;;;2.91;69.98;98327.31;1814809;79;20935;-64
2021/04/27 00:59:25;;;;;;;5.00;2.75;;;;;;;2.92;69.98;98327.70;1814849;79;20908;-64
2021/04/27 01:01:52;;;;;;;4.65;3.47;;;;;;;2.94;70.12;98329.85;1814781;79;20897;-64
2021/04/27 01:04:19;;;;;;;4.75;2.83;;;;;;;2.94;70.34;98327.20;1814905;79;20987;-63
2021/04/27 01:06:51;;;;;;;3.58;2.95;;;;;;;2.96;70.33;98330.64;1814853;79;21198;-64
2021/04/27 01:09:38;;;;;;;3.37;3.02;;;;;;;2.96;70.73;98322.69;1814768;79;20944;-64
2021/04/27 01:12:19;;;;;;;3.33;2.85;;;;;;;2.97;70.66;98329.73;1814808;79;21453;-64
2021/04/27 01:14:58;;;;;;;2.70;2.33;;;;;;;2.97;70.49;98319.12;1814490;79;21011;-64
2021/04/27 01:17:27;;;;;;;4.78;3.05;;;;;;;2.92;70.49;98317.97;1814869;78;20964;-64
2021/04/27 01:20:10;;;;;;;5.50;2.65;;;;;;;2.91;70.36;98317.56;1814917;79;22126;-64
2021/04/27 01:23:21;;;;;;;3.30;2.98;;;;;;;2.91;70.42;98316.70;1814240;79;21007;-63
2021/04/27 01:25:56;;;;;;;4.25;2.60;;;;;;;2.88;70.59;98322.52;1814361;79;20936;-63
2021/04/27 01:28:27;;;;;;;4.60;3.02;;;;;;;2.85;70.55;98320.02;1814526;79;37753;-64
2021/04/27 01:30:56;;;;;;;3.75;2.95;;;;;;;2.81;70.79;98319.72;1814815;79;20924;-64
2021/04/27 01:33:28;;;;;;;2.87;2.60;;;;;;;2.79;70.64;98313.62;1814869;79;21357;-64
2021/04/27 01:35:59;;;;;;;3.83;2.50;;;;;;;2.75;70.60;98317.30;1811223;78;21034;-64
2021/04/27 01:38:33;;;;;;;3.58;2.37;;;;;;;2.73;70.58;98311.20;1782600;79;20881;-64
2021/04/27 01:41:01;;;;;;;3.45;2.72;;;;;;;2.72;70.51;98300.18;1805696;79;20913;-64
2021/04/27 01:43:29;;;;;;;4.62;3.02;;;;;;;2.72;70.71;98296.20;1805711;79;21404;-64
2021/04/27 01:46:03;;;;;;;4.65;3.30;;;;;;;2.72;70.71;98290.90;1805714;79;21331;-64
2021/04/27 01:48:33;;;;;;;4.25;2.40;;;;;;;2.74;70.71;98297.00;1805813;79;20924;-64
2021/04/27 01:51:02;;;;;;;5.92;2.92;;;;;;;2.75;70.49;98296.08;1805692;79;20924;-64
2021/04/27 01:53:48;;;;;;;3.85;2.90;;;;;;;2.75;70.34;98293.43;1805667;79;21417;-64
2021/04/27 01:56:18;;;;;;;4.47;2.60;;;;;;;2.77;70.23;98283.61;1805800;79;21465;-64
2021/04/27 01:58:46;;;;;;;2.90;2.65;;;;;;;2.79;70.29;98279.58;1805735;79;21378;-64
2021/04/27 02:01:13;;;;;;;3.17;2.85;;;;;;;2.82;70.07;98273.70;1805644;79;20921;-63
2021/04/27 02:03:44;;;;;;;3.10;2.33;;;;;;;2.84;69.88;98271.85;1805753;79;21339;-64
2021/04/27 02:06:30;;;;;;;2.58;2.33;;;;;;;2.87;69.83;98274.38;1805771;79;21237;-64
2021/04/27 02:09:08;;;;;;;3.77;2.80;;;;;;;2.88;69.81;98266.80;1805710;79;20921;-64
2021/04/27 02:11:42;;;;;;;3.58;2.80;;;;;;;2.88;69.58;98264.15;1805123;79;21421;-64
2021/04/27 02:14:13;;;;;;;5.15;3.17;;;;;;;2.92;69.44;98265.35;1805682;79;20936;-64
2021/04/27 02:16:47;;;;;;;3.05;2.50;;;;;;;2.91;69.52;98258.34;1805690;79;20913;-64
2021/04/27 02:19:15;;;;;;;4.53;3.02;;;;;;;2.95;69.52;98253.29;1805695;79;20926;-64
2021/04/27 02:21:45;;;;;;;4.80;3.42;;;;;;;2.97;69.00;98252.31;1804681;79;20912;-64
2021/04/27 02:24:31;;;;;;;5.12;3.35;;;;;;;3.00;68.73;98242.05;1805101;79;21363;-63
2021/04/27 02:27:00;;;;;;;3.75;2.70;;;;;;;3.02;68.09;98242.84;1781428;79;20980;-65
2021/04/27 02:29:31;;;;;;;6.28;4.83;;;;;;;3.04;67.77;98243.19;1805383;79;21410;-64
2021/04/27 02:32:00;;;;;;;7.83;4.60;;;;;;;3.07;67.83;98243.06;1781207;79;20932;-65
2021/04/27 02:34:30;;;;;;;7.00;4.28;;;;;;;3.09;67.81;98239.02;1782229;79;20948;-64
2021/04/27 02:37:00;;;;;;;10.38;4.50;;;;;;;3.11;67.53;98246.44;1805894;79;22113;-63
2021/04/27 02:39:30;;;;;;;8.75;5.00;;;;;;;3.11;67.22;98245.12;1805298;79;20992;-63
2021/04/27 02:41:59;;;;;;;5.50;3.60;;;;;;;3.10;66.95;98249.16;1805750;78;20992;-63
2021/04/27 02:44:45;;;;;;;3.83;3.10;;;;;;;3.10;66.45;98242.53;1805808;79;20936;-63
2021/04/27 02:47:15;;;;;;;4.45;3.40;;;;;;;3.08;66.16;98242.59;1805403;79;21367;-64
2021/04/27 02:49:43;;;;;;;7.37;3.75;;;;;;;3.06;66.19;98242.66;1805825;79;21445;-63
2021/04/27 02:52:13;;;;;;;7.55;3.45;;;;;;;3.06;66.24;98247.95;1805616;79;20943;-63
2021/04/27 02:54:52;;;;;;;5.33;3.55;;;;;;;3.07;66.56;98241.73;1805546;79;20920;-65
2021/04/27 02:57:20;;;;;;;6.62;4.30;;;;;;;3.10;66.77;98242.05;1805784;79;21011;-65
2021/04/27 02:59:49;;;;;;;6.80;5.15;;;;;;;3.13;66.97;98247.23;1805901;79;21008;-64
2021/04/27 03:02:17;;;;;;;8.30;5.08;;;;;;;3.14;67.22;98247.64;1805798;79;22594;-64
2021/04/27 03:04:44;;;;;;;6.30;5.00;;;;;;;3.17;67.21;98260.79;1805814;79;20913;-64
2021/04/27 03:07:17;;;;;;;6.58;4.70;;;;;;;3.18;67.08;98253.20;1805836;79;20980;-64
2021/04/27 03:09:46;;;;;;;6.12;4.47;;;;;;;3.19;66.58;98256.27;1805756;79;21035;-64
2021/04/27 03:12:15;;;;;;;6.05;4.45;;;;;;;3.18;66.67;98254.53;1805785;79;20916;-64
2021/04/27 03:14:42;;;;;;;7.55;4.12;;;;;;;3.18;66.67;98257.19;1805851;79;21554;-63
2021/04/27 03:17:12;;;;;;;6.08;4.10;;;;;;;3.15;66.57;98253.33;1805782;79;20968;-64
2021/04/27 03:19:42;;;;;;;5.92;3.50;;;;;;;3.15;66.14;98248.02;1804378;79;21454;-65
2021/04/27 03:22:14;;;;;;;4.80;3.50;;;;;;;3.13;65.79;98247.23;1805432;79;21547;-63
2021/04/27 03:24:43;;;;;;;4.05;3.22;;;;;;;3.12;65.59;98247.30;1805846;79;21330;-64
2021/04/27 03:27:10;;;;;;;4.30;3.10;;;;;;;3.11;65.74;98247.77;1805822;79;21367;-64
2021/04/27 03:29:55;;;;;;;4.10;3.35;;;;;;;3.08;65.49;98247.42;1804745;79;20932;-64
2021/04/27 03:32:25;;;;;;;5.75;3.92;;;;;;;3.06;65.48;98255.06;1805719;78;20928;-65
2021/04/27 03:34:55;;;;;;;8.18;4.30;;;;;;;3.05;65.59;98258.63;1805900;79;21441;-64
2021/04/27 03:37:23;;;;;;;6.25;3.67;;;;;;;3.04;65.65;98259.55;1812545;78;20900;-64
2021/04/27 03:39:52;;;;;;;5.25;3.62;;;;;;;3.02;65.66;98252.12;1814947;79;21152;-64
2021/04/27 03:42:20;;;;;;;5.33;3.77;;;;;;;3.02;65.39;98262.74;1814850;79;21401;-64
2021/04/27 03:44:49;;;;;;;6.15;3.65;;;;;;;3.01;65.44;98258.34;1814885;78;20972;-64
2021/04/27 03:47:17;;;;;;;10.75;5.40;;;;;;;3.01;65.42;98263.66;1814937;78;20968;-64
2021/04/27 03:49:46;;;;;;;20.05;6.35;;;;;;;3.02;65.74;98257.44;1814939;79;20916;-64
2021/04/27 03:52:13;;;;;;;16.23;10.32;;;;;;;3.01;66.26;98257.91;1814875;79;21185;-63
2021/04/27 03:54:41;;;;;;;18.85;11.18;;;;;;;3.03;66.90;98258.70;1814899;79;20967;-64
2021/04/27 03:57:09;;;;;;;31.60;24.90;;;;;;;3.05;67.46;98264.80;1814881;79;20999;-64
2021/04/27 03:59:42;;;;;;;41.20;32.78;;;;;;;3.07;68.01;98260.31;1813043;79;20932;-64
2021/04/27 04:02:11;;;;;;;69.03;46.83;;;;;;;3.11;68.30;98261.52;1814905;79;20987;-64
2021/04/27 04:04:40;;;;;;;23.07;17.12;;;;;;;3.12;68.55;98262.75;1814895;79;21362;-64
2021/04/27 04:07:17;;;;;;;9.53;6.87;;;;;;;3.16;68.74;98266.16;1814895;79;21003;-64
2021/04/27 04:09:51;;;;;;;12.20;6.00;;;;;;;3.20;68.67;98279.23;1761651;79;20908;-64
2021/04/27 04:12:20;;;;;;;7.70;5.83;;;;;;;3.22;68.96;98271.22;1813969;79;21019;-64
2021/04/27 04:14:48;;;;;;;5.03;4.20;;;;;;;3.21;69.28;98275.64;1814959;79;20960;-65
2021/04/27 04:17:19;;;;;;;6.40;4.75;;;;;;;3.20;69.70;98289.86;1813740;79;21211;-64
2021/04/27 04:19:48;;;;;;;8.95;4.58;;;;;;;3.16;69.90;98293.55;1814810;78;20988;-64
2021/04/27 04:22:16;;;;;;;7.08;4.58;;;;;;;3.13;70.25;98290.17;1814879;79;20904;-65
2021/04/27 04:24:55;;;;;;;10.88;5.55;;;;;;;3.12;70.17;98295.06;1814009;79;20912;-65
2021/04/27 04:27:26;;;;;;;11.10;6.05;;;;;;;3.11;70.20;98292.03;1815003;79;21468;-64
2021/04/27 04:29:55;;;;;;;12.80;6.25;;;;;;;3.10;70.23;98290.30;1813082;79;21358;-63
2021/04/27 04:32:39;;;;;;;17.70;7.77;;;;;;;3.10;70.04;98288.97;1815146;79;20972;-66
2021/04/27 04:35:28;;;;;;;7.83;5.78;;;;;;;3.13;70.07;98301.64;1814866;79;20983;-63
2021/04/27 04:38:18;;;;;;;8.83;5.42;;;;;;;3.19;70.35;98298.73;1806071;79;21387;-64
2021/04/27 04:41:09;;;;;;;14.10;5.60;;;;;;;3.24;70.40;98294.09;1805781;79;20925;-64
2021/04/27 04:43:55;;;;;;;8.45;5.30;;;;;;;3.36;70.46;98297.16;1805740;79;21425;-64
2021/04/27 04:46:43;;;;;;;10.43;5.90;;;;;;;3.49;70.71;98298.39;1805728;79;20928;-64
2021/04/27 04:49:12;;;;;;;7.70;4.53;;;;;;;3.69;70.15;98301.97;1799757;79;20932;-64
2021/04/27 04:51:52;;;;;;;10.03;4.58;;;;;;;3.89;69.66;98301.97;1802859;79;21552;-65
2021/04/27 04:54:39;;;;;;;5.67;4.20;;;;;;;4.13;69.11;98291.18;1805778;79;21359;-65
2021/04/27 04:57:16;;;;;;;6.75;4.08;;;;;;;4.44;68.10;98295.12;1795911;79;21378;-63
2021/04/27 04:59:46;;;;;;;5.45;3.72;;;;;;;4.72;66.85;98289.84;1805705;78;20932;-65
2021/04/27 05:02:15;;;;;;;9.70;4.62;;;;;;;4.98;65.27;98293.45;1805675;79;21003;-64
2021/04/27 05:05:02;;;;;;;4.62;2.98;;;;;;;5.20;63.83;98292.39;1805711;79;21322;-65
2021/04/27 05:07:56;;;;;;;14.15;3.30;;;;;;;5.46;62.58;98298.24;1786504;80;21015;-66
2021/04/27 05:10:35;;;;;;;6.78;5.30;;;;;;;5.69;62.03;98295.27;1802192;79;21195;-65
2021/04/27 05:13:09;;;;;;;35.35;22.90;;;;;;;5.93;60.83;98296.28;1803764;79;20995;-63
2021/04/27 05:15:38;;;;;;;19.52;13.45;;;;;;;6.17;60.14;98299.97;1805796;79;21239;-66
2021/04/27 05:18:13;;;;;;;7.97;3.98;;;;;;;6.37;59.77;98298.42;1805789;79;21004;-65
2021/04/27 05:20:42;;;;;;;5.22;4.08;;;;;;;6.62;59.59;98298.41;1805776;79;20909;-65
2021/04/27 05:23:14;;;;;;;7.30;3.77;;;;;;;6.91;58.66;98295.95;1805762;79;21367;-63
2021/04/27 05:25:46;;;;;;;3.95;3.17;;;;;;;7.17;57.70;98291.78;1805693;79;21031;-68
2021/04/27 05:28:15;;;;;;;6.83;4.80;;;;;;;7.47;56.41;98291.81;1805733;79;20873;-64
2021/04/27 05:30:44;;;;;;;9.78;3.98;;;;;;;7.74;55.52;98293.81;1805696;79;20920;-65
2021/04/27 05:33:11;;;;;;;5.15;4.25;;;;;;;8.00;54.48;98291.41;1805682;79;20976;-66
2021/04/27 05:35:41;;;;;;;5.30;4.10;;;;;;;8.24;54.66;98287.20;1805751;79;21317;-65
2021/04/27 05:38:09;;;;;;;5.15;3.87;;;;;;;8.51;53.01;98289.16;1805667;77;20960;-65
2021/04/27 05:40:40;;;;;;;5.45;2.70;;;;;;;8.76;52.72;98282.27;1805705;79;21370;-66
2021/04/27 05:43:10;;;;;;;5.65;3.77;;;;;;;8.99;51.39;98287.48;1805644;79;20999;-65
2021/04/27 05:45:39;;;;;;;4.80;3.95;;;;;;;9.25;50.80;98288.45;1805692;79;20973;-65
2021/04/27 05:48:09;;;;;;;6.78;2.77;;;;;;;9.50;49.73;98293.05;1805740;79;21368;-65
2021/04/27 05:50:38;;;;;;;7.72;5.75;;;;;;;9.72;48.07;98296.48;1805720;79;21007;-66
2021/04/27 05:53:05;;;;;;;9.28;7.12;;;;;;;10.00;47.94;98293.27;1805620;79;20925;-67
2021/04/27 05:55:35;;;;;;;10.43;6.65;;;;;;;10.21;47.29;98301.66;1805694;79;20928;-66
2021/04/27 05:58:04;;;;;;;7.40;6.10;;;;;;;10.35;47.08;98292.67;1805696;79;20921;-66
2021/04/27 06:00:32;;;;;;;7.50;5.83;;;;;;;10.54;46.18;98289.55;1805732;79;21380;-65
2021/04/27 06:03:00;;;;;;;8.85;6.40;;;;;;;10.77;45.54;98295.97;1805576;79;21429;-65
2021/04/27 06:05:31;;;;;;;8.90;6.10;;;;;;;10.99;44.57;98294.43;1805891;79;21004;-65
2021/04/27 06:08:00;;;;;;;5.85;5.25;;;;;;;11.20;45.15;98293.33;1805806;79;20973;-65
2021/04/27 06:10:29;;;;;;;13.22;4.58;;;;;;;11.36;44.62;98287.67;1805544;79;21031;-66
2021/04/27 06:13:00;;;;;;;4.40;2.98;;;;;;;11.57;44.42;98293.27;1805593;79;22096;-67
2021/04/27 06:15:27;;;;;;;6.97;3.92;;;;;;;11.78;44.36;98293.50;1805788;79;20996;-66
2021/04/27 06:17:59;;;;;;;4.92;3.08;;;;;;;11.97;43.12;98294.32;1805835;79;20901;-66
2021/04/27 06:20:27;;;;;;;5.17;3.62;;;;;;;12.18;42.20;98300.38;1805845;79;20999;-65
2021/04/27 06:22:58;;;;;;;5.20;3.87;;;;;;;12.27;41.30;98289.73;1805813;79;21008;-66
2021/04/27 06:25:26;;;;;;;5.58;4.22;;;;;;;12.36;41.89;98295.38;1805850;79;21299;-65
2021/04/27 06:27:56;;;;;;;6.42;4.17;;;;;;;12.50;40.96;98300.52;1805804;79;21016;-66
2021/04/27 06:30:24;;;;;;;14.03;5.28;;;;;;;12.66;40.34;98297.50;1805926;79;21334;-66
2021/04/27 06:32:52;;;;;;;7.20;5.58;;;;;;;12.78;40.63;98297.00;1805727;79;21063;-65
2021/04/27 06:35:25;;;;;;;10.95;5.33;;;;;;;12.92;40.00;98295.39;1805848;79;20917;-66
2021/04/27 06:37:53;;;;;;;4.58;4.17;;;;;;;13.04;39.64;98294.91;1810478;79;21201;-67
2021/04/27 06:40:21;;;;;;;7.00;4.70;;;;;;;13.20;38.86;98298.55;1814917;79;20967;-66
2021/04/27 06:42:50;;;;;;;5.17;4.28;;;;;;;13.27;37.37;98295.70;1814893;79;21015;-68
2021/04/27 06:45:20;;;;;;;11.48;5.40;;;;;;;13.44;37.25;98292.16;1814937;79;20960;-67
2021/04/27 06:47:50;;;;;;;6.03;4.42;;;;;;;13.44;37.04;98300.25;1814971;79;20972;-67
2021/04/27 06:50:18;;;;;;;6.10;4.15;;;;;;;13.44;37.63;98301.59;1814953;79;21176;-67
2021/04/27 06:52:45;;;;;;;7.30;5.00;;;;;;;13.37;37.06;98306.14;1814890;79;21387;-67
2021/04/27 06:55:15;;;;;;;7.03;4.15;;;;;;;13.36;37.79;98307.12;1814928;79;20885;-68
2021/04/27 06:57:44;;;;;;;6.60;4.70;;;;;;;13.41;37.58;98305.89;1814937;79;20876;-68
2021/04/27 07:00:14;;;;;;;13.68;5.28;;;;;;;13.53;36.96;98307.58;1814946;79;20928;-68
2021/04/27 07:02:44;;;;;;;4.67;3.92;;;;;;;13.60;37.25;98307.92;1814906;79;21299;-67
2021/04/27 07:05:13;;;;;;;5.70;4.22;;;;;;;13.61;36.57;98307.80;1814969;79;21353;-67
2021/04/27 07:07:42;;;;;;;5.25;3.95;;;;;;;13.62;35.64;98312.22;1814956;79;20936;-66
2021/04/27 07:10:13;;;;;;;6.53;4.37;;;;;;;13.52;34.00;98314.80;1815023;78;21278;-67
2021/04/27 07:12:43;;;;;;;6.42;4.58;;;;;;;13.38;33.95;98313.73;1814872;79;20984;-67
2021/04/27 07:15:15;;;;;;;4.97;4.40;;;;;;;13.25;34.75;98317.05;1814903;79;21245;-69
2021/04/27 07:17:43;;;;;;;7.80;4.22;;;;;;;13.08;35.22;98319.77;1814929;79;20932;-66
2021/04/27 07:20:13;;;;;;;8.35;3.72;;;;;;;12.97;35.10;98318.78;1814935;79;20968;-67
2021/04/27 07:22:42;;;;;;;5.50;3.85;;;;;;;12.82;34.73;98320.89;1814809;79;20967;-67
2021/04/27 07:25:13;;;;;;;6.17;4.55;;;;;;;12.67;35.73;98322.60;1815050;79;21330;-67
2021/04/27 07:27:44;;;;;;;5.15;3.58;;;;;;;12.71;36.13;98321.36;1815023;78;22277;-66
2021/04/27 07:30:17;;;;;;;6.10;3.83;;;;;;;12.69;37.72;98324.67;1814796;78;20928;-67
2021/04/27 07:32:44;;;;;;;5.62;3.72;;;;;;;12.75;36.29;98322.84;1814896;79;21350;-68
2021/04/27 07:35:14;;;;;;;30.30;11.63;;;;;;;12.84;36.70;98320.77;1814945;79;20912;-67
2021/04/27 07:37:43;;;;;;;6.22;5.00;;;;;;;12.98;35.82;98321.86;1814286;79;20920;-67
2021/04/27 07:40:12;;;;;;;6.42;3.92;;;;;;;13.13;36.15;98326.98;1814372;79;21346;-67
2021/04/27 07:42:42;;;;;;;8.63;7.15;;;;;;;13.29;35.68;98324.77;1814311;79;21321;-67
2021/04/27 07:45:11;;;;;;;14.15;12.70;;;;;;;13.49;34.78;98333.09;1814335;79;20940;-66
2021/04/27 07:47:40;;;;;;;7.45;3.85;;;;;;;13.71;34.55;98333.02;1814252;79;21007;-66
2021/04/27 07:50:11;;;;;;;11.43;4.47;;;;;;;13.85;32.42;98320.22;1814383;79;20932;-66
2021/04/27 07:52:39;;;;;;;9.03;4.85;;;;;;;14.00;33.78;98318.05;1814269;79;21363;-66
2021/04/27 07:55:09;;;;;;;5.90;4.17;;;;;;;14.06;32.71;98325.63;1814231;79;21011;-67
2021/04/27 07:57:39;;;;;;;4.22;3.22;;;;;;;14.08;32.91;98325.88;1814338;79;20992;-73
2021/04/27 08:00:08;;;;;;;5.55;4.95;;;;;;;14.00;33.25;98324.80;1814280;79;20873;-66
2021/04/27 08:02:41;;;;;;;3.60;3.10;;;;;;;13.71;32.66;98324.06;1814501;79;20987;-66
2021/04/27 08:05:12;;;;;;;19.25;6.70;;;;;;;13.42;32.39;98329.17;1814330;79;21367;-66
2021/04/27 08:07:43;;;;;;;29.67;20.73;;;;;;;13.13;32.46;98326.52;1814519;79;21050;-65
2021/04/27 08:10:13;;;;;;;14.50;9.65;;;;;;;12.80;31.73;98328.72;1814314;79;21032;-66
2021/04/27 08:12:45;;;;;;;5.40;3.22;;;;;;;12.51;33.77;98339.97;1814260;79;20920;-67
2021/04/27 08:15:17;;;;;;;4.45;3.95;;;;;;;12.26;33.18;98336.48;1814366;79;20920;-68
2021/04/27 08:17:46;;;;;;;5.62;3.58;;;;;;;12.04;35.47;98334.58;1814439;79;22265;-66
2021/04/27 08:20:15;;;;;;;12.18;3.65;;;;;;;11.92;36.04;98340.92;1814245;79;20952;-67
2021/04/27 08:22:47;;;;;;;6.35;3.25;;;;;;;11.84;35.91;98337.44;1814290;79;21335;-68
2021/04/27 08:25:18;;;;;;;3.65;3.05;;;;;;;11.85;35.66;98332.41;1814368;79;20913;-66
2021/04/27 08:27:46;;;;;;;4.58;3.50;;;;;;;11.91;35.65;98336.47;1814280;79;20913;-66
2021/04/27 08:30:18;;;;;;;3.60;2.80;;;;;;;12.00;35.35;98344.35;1814275;79;20924;-66
2021/04/27 08:32:48;;;;;;;2.52;2.33;;;;;;;12.08;35.15;98340.61;1814208;79;21307;-67
2021/04/27 08:35:16;;;;;;;5.08;3.40;;;;;;;12.10;33.28;98338.15;1814389;78;20940;-66
2021/04/27 08:37:45;;;;;;;5.42;3.90;;;;;;;12.02;29.86;98333.00;1812778;79;21481;-67
2021/04/27 08:40:14;;;;;;;4.87;3.27;;;;;;;11.91;30.85;98337.32;1805819;79;20908;-66
2021/04/27 08:42:47;;;;;;;3.50;2.62;;;;;;;11.84;31.29;98340.13;1805726;79;21260;-66
2021/04/27 08:45:18;;;;;;;7.05;2.60;;;;;;;11.84;32.19;98341.47;1805744;79;20936;-66
2021/04/27 08:47:46;;;;;;;6.92;2.20;;;;;;;11.83;33.81;98341.09;1805802;79;21366;-67
2021/04/27 08:50:16;;;;;;;5.20;2.67;;;;;;;11.78;32.05;98343.27;1805719;79;20924;-67
2021/04/27 08:52:45;;;;;;;2.85;2.47;;;;;;;11.69;32.82;98343.96;1805721;79;20916;-67
2021/04/27 08:55:13;;;;;;;3.77;2.52;;;;;;;11.48;31.92;98339.70;1805773;79;21357;-67
2021/04/27 08:57:43;;;;;;;3.55;2.30;;;;;;;11.33;32.58;98338.98;1805699;79;20901;-66
2021/04/27 09:00:19;;;;;;;3.55;1.90;;;;;;;11.13;33.36;98342.66;1805701;79;20916;-67
2021/04/27 09:02:55;;;;;;;3.25;2.30;;;;;;;10.96;34.07;98344.37;1805684;79;21004;-69
2021/04/27 09:05:27;;;;;;;2.67;1.95;;;;;;;10.77;34.20;98347.02;1805858;79;20924;-67
2021/04/27 09:07:56;;;;;;;5.85;2.67;;;;;;;10.55;34.03;98340.08;1805755;79;21192;-66
2021/04/27 09:10:31;;;;;;;10.75;7.17;;;;;;;10.36;34.33;98343.19;1805635;79;20940;-69
2021/04/27 09:13:18;;;;;;;53.70;24.00;;;;;;;10.24;33.88;98350.25;1803946;79;20940;-68
2021/04/27 09:15:51;;;;;;;8.45;5.80;;;;;;;10.19;34.86;98344.34;1805831;79;20904;-67
2021/04/27 09:18:33;;;;;;;6.17;4.00;;;;;;;10.21;34.03;98345.94;1805998;79;20959;-66
2021/04/27 09:21:06;;;;;;;19.62;12.75;;;;;;;10.29;34.30;98340.89;1805887;79;21373;-66
2021/04/27 09:23:36;;;;;;;4.80;2.90;;;;;;;10.36;34.19;98340.05;1805647;79;20940;-66
2021/04/27 09:26:21;;;;;;;;;;;;;;;10.47;34.48;98349.55;1808576;79;21047;-66
2021/04/27 09:28:52;;;;;;;2.17;1.87;;;;;;;10.55;33.88;98345.45;1805841;79;20133;-66
2021/04/27 09:31:37;;;;;;;4.08;1.85;;;;;;;10.52;33.31;98338.98;1805779;79;20924;-67
2021/04/27 09:34:29;;;;;;;15.60;3.20;;;;;;;10.43;32.47;98338.63;1805681;79;21437;-66
2021/04/27 09:37:05;;;;;;;3.00;2.10;;;;;;;10.29;33.44;98334.68;1805779;79;20960;-67
2021/04/27 09:39:39;;;;;;;4.87;1.95;;;;;;;10.07;32.72;98336.14;1812957;79;20921;-68
2021/04/27 09:42:18;;;;;;;4.03;2.55;;;;;;;9.87;33.55;98339.33;1814710;79;20987;-68
2021/04/27 09:44:51;;;;;;;4.20;1.75;;;;;;;9.64;32.72;98341.73;1814834;78;20912;-65
2021/04/27 09:47:30;;;;;;;3.10;2.10;;;;;;;9.51;33.48;98335.48;1814903;79;21366;-66
2021/04/27 09:50:08;;;;;;;2.52;1.75;;;;;;;9.38;34.09;98332.27;1814832;79;20925;-66
2021/04/27 09:52:46;;;;;;;3.30;1.80;;;;;;;9.34;34.88;98332.07;1814560;79;21047;-67
2021/04/27 09:55:20;;;;;;;7.50;2.22;;;;;;;9.35;33.56;98331.13;1814803;79;20991;-66
2021/04/27 09:57:54;;;;;;;9.18;2.22;;;;;;;9.46;34.53;98333.56;1814929;79;20979;-67
2021/04/27 10:00:38;;;;;;;1.52;1.42;;;;;;;9.56;33.64;98325.30;1814839;79;21346;-67
2021/04/27 10:03:15;;;;;;;3.62;1.80;;;;;;;9.73;33.28;98334.42;1814656;79;20944;-67
2021/04/27 10:05:46;;;;;;;3.15;1.92;;;;;;;9.90;33.76;98320.34;1814851;79;20912;-67
2021/04/27 10:08:17;;;;;;;2.83;2.10;;;;;;;10.09;34.34;98315.45;1815150;79;21560;-67
2021/04/27 10:10:52;;;;;;;5.78;2.95;;;;;;;10.31;34.35;98315.28;1814815;79;20945;-67
2021/04/27 10:13:20;;;;;;;4.97;2.30;;;;;;;10.56;35.40;98318.98;1814698;79;21185;-66
2021/04/27 10:15:55;;;;;;;2.75;2.17;;;;;;;10.82;35.73;98308.58;1814798;79;21455;-66
2021/04/27 10:18:30;;;;;;;5.53;2.12;;;;;;;11.08;33.47;98295.07;1814807;79;21334;-66
2021/04/27 10:20:55;;;;;;;4.87;2.27;;;;;;;11.28;32.92;98291.42;1782680;79;20920;-67
2021/04/27 10:23:26;;;;;;;2.33;1.52;;;;;;;11.50;33.18;98297.41;1731666;79;21354;-67
2021/04/27 10:25:57;;;;;;;2.33;1.50;;;;;;;11.69;31.94;98295.03;1814835;79;21281;-66
2021/04/27 10:29:07;;;;;;;3.75;1.70;;;;;;;11.87;30.03;98294.61;1814830;78;20920;-67
2021/04/27 10:31:39;;;;;;;4.28;2.00;;;;;;;12.02;31.52;98298.01;1814789;79;21327;-66
2021/04/27 10:34:15;;;;;;;4.10;1.40;;;;;;;12.17;30.98;98294.14;1814672;79;20979;-67
2021/04/27 10:36:57;;;;;;;1.92;1.50;;;;;;;12.28;29.85;98283.84;1814840;79;20916;-67
2021/04/27 10:39:48;;;;;;;7.80;3.12;;;;;;;12.34;30.08;98290.60;1823422;78;21361;-67
2021/04/27 10:42:30;;;;;;;3.62;2.08;;;;;;;12.37;29.35;98284.98;1828549;78;21464;-67
2021/04/27 10:45:07;;;;;;;3.02;1.77;;;;;;;12.24;27.73;98287.28;1828621;78;20983;-67
2021/04/27 10:47:44;;;;;;;1.87;1.42;;;;;;;12.03;27.59;98291.63;1828753;78;21485;-66
2021/04/27 10:50:31;;;;;;;3.30;1.62;;;;;;;11.77;28.01;98287.73;1828797;78;20983;-67
2021/04/27 10:53:34;;;;;;;1.80;1.57;;;;;;;11.50;29.56;98292.88;1828737;78;22023;-67
2021/04/27 10:56:04;;;;;;;8.50;2.15;;;;;;;11.29;29.23;98285.05;1828863;78;21483;-67
2021/04/27 10:58:46;;;;;;;2.17;1.55;;;;;;;11.14;30.71;98282.53;1828914;78;20923;-67
2021/04/27 11:01:22;;;;;;;2.22;1.60;;;;;;;11.11;31.55;98281.41;1828882;78;20872;-66
2021/04/27 11:03:55;;;;;;;1.72;1.50;;;;;;;11.05;29.73;98289.92;1828809;78;20892;-66
2021/04/27 11:06:27;;;;;;;2.08;1.50;;;;;;;11.10;30.53;98286.90;1828841;78;22106;-66
2021/04/27 11:09:12;;;;;;;2.02;1.50;;;;;;;11.12;29.62;98288.52;1822801;78;20888;-67
2021/04/27 11:11:41;;;;;;;3.45;1.75;;;;;;;11.17;30.29;98279.62;1829066;78;20967;-66
2021/04/27 11:14:20;;;;;;;3.33;1.70;;;;;;;11.21;29.34;98281.13;1796745;78;21405;-66
2021/04/27 11:16:54;;;;;;;2.77;1.87;;;;;;;11.21;30.47;98273.55;1828769;78;21408;-67
2021/04/27 11:19:36;;;;;;;2.62;1.77;;;;;;;11.27;31.53;98269.53;1828853;78;21347;-66
2021/04/27 11:22:32;;;;;;;1.98;1.77;;;;;;;11.34;31.50;98265.42;1828850;78;21038;-67
2021/04/27 11:25:06;;;;;;;2.35;1.90;;;;;;;11.41;31.02;98269.36;1828805;78;20940;-66
2021/04/27 11:27:42;;;;;;;2.50;1.52;;;;;;;11.45;29.81;98272.70;1828715;78;20959;-67
2021/04/27 11:30:17;;;;;;;2.08;1.87;;;;;;;11.45;28.47;98276.73;1796487;78;20939;-66
2021/04/27 11:32:47;;;;;;;2.85;1.60;;;;;;;11.42;28.37;98279.16;1828656;78;20935;-66
2021/04/27 11:35:21;;;;;;;2.95;1.80;;;;;;;11.39;28.68;98281.57;1773612;78;20928;-67
2021/04/27 11:37:59;;;;;;;2.85;2.10;;;;;;;11.39;29.90;98278.03;1828755;78;20908;-67
2021/04/27 11:40:37;;;;;;;2.08;1.57;;;;;;;11.38;31.40;98276.30;1815659;78;20995;-69
2021/04/27 11:43:12;;;;;;;3.25;1.90;;;;;;;11.28;29.02;98284.70;1814914;79;21059;-68
2021/04/27 11:45:47;;;;;;;2.47;1.70;;;;;;;11.21;29.50;98275.75;1815013;79;21360;-67
2021/04/27 11:48:22;;;;;;;3.92;2.15;;;;;;;11.08;29.31;98276.26;1814852;79;20940;-67
2021/04/27 11:50:51;;;;;;;3.50;2.33;;;;;;;10.98;28.98;98279.27;1814929;79;20983;-68
2021/04/27 11:53:21;;;;;;;1.95;1.70;;;;;;;10.89;30.13;98275.90;1814867;78;21425;-67
2021/04/27 11:55:55;;;;;;;2.60;1.90;;;;;;;10.75;29.96;98278.23;1814889;79;20993;-66
2021/04/27 11:58:33;;;;;;;14.70;6.20;;;;;;;10.68;30.48;98279.66;1814912;79;21346;-67
2021/04/27 12:01:03;;;;;;;4.65;2.20;;;;;;;10.62;31.41;98280.45;1814942;79;20979;-67